Kezdőlap
METAR-TAF:

METAR-TAF

Repülőterek :

Louis Trichardt, Dél-afrikai Köztársaság

földrajzi szélesség: 23-09-36S, földrajzi hosszúság: 029-41-48E, magasság: 935 m

Jelenlegi meteorológiai megfigyelések

A jelentés 1 órával és 23 perccel ezelõtt készült, 05:00 UTC
Déli szél 10 kt
Hőmérséklet 10°C
Légköri nyomás 1024 hPa
Látótávolság: 9000 m

METAR: FALM 160500Z 17010KT 9000 NSC 10/// Q1024

Idő: 08:23 (06:23 UTC)

Előrejelzés

A jelentés 21 órával és 23 perccel ezelõtt készült, 09:00 UTC
Az előrejelzés 15-én 10 óra UTC és 15-én 18 óra UTC között érvényes
Keleti szél 6 kt
Látótávolság 10 km, vagy több
felhőtlen 1500 m magasságban, és nincs gomolyfelhõ
15-én 10 óra UTC és 15-én 12 óra UTC között fokozatosan kialakuló
Észak-északkeleti szél 7 kt

TAF: FALM 150900Z 1510/1518 09006KT CAVOK BECMG 1510/1512 03007KT TX33/1512Z TN25/1518Z

Meteorológiai megfigyelések és előrejelzések több, mint 4000 repülőtéren (METAR és TAF jelentéseket).

A térképen piros és sárga pontok jelzik az elérhető meteorológiai állomásokat.

Mozgassa az egeret a pont fölött, hogy megjelenjen az állomás neve.

Azután kattintson az időjárási megfigyelések és előrejelzések megtekintéséhez.

A térkép megváltoztatása: kattintson a fekete keresztel jelölt zöld gombra ráközelítéshez, a vonallal jelölt zöld gombra távolításhoz, vagy a zöld nyilakra a szomszédos térképek eléréséhez.


METAR-TAF: